• Join FlightAware (Why Join?)
  • Login
  • US Flag 
04:29PM EST


 

Airport Tracker/Info


-or-


 

Live Flight TrackerFlight Track Log ✈ TAM3270 ✈ 10-May-2013 ✈ SBSP / CGH - SBRP / RAO

Flight Track Log - Related Links

Times and Time Zones

All times are in EDT time to prevent confusion due to time zone crossing. See the TAM3270 flight status page for this flight to view local times or setup timezone preferences in your user account.

Time Position Orientation Groundspeed Altitude Reporting Facility
EDT Latitude Longitude Course Direction KTS MPH feet Rate Location/Type
06:02AM -22.9140 -46.9798 337° Northwest  Level Estimated
06:03AM -22.8631 -47.0028 337° Northwest  Level Estimated
06:04AM -22.8122 -47.0258 337° Northwest  Level Estimated
06:05AM -22.7612 -47.0488 337° Northwest  Level Estimated
06:06AM -22.6972 -47.0777 337° Northwest  Level Estimated
06:07AM -22.6332 -47.1065 337° Northwest  Level Estimated
06:08AM -22.5692 -47.1354 337° Northwest  Level Estimated
06:09AM -22.5052 -47.1642 337° Northwest  Level Estimated
06:10AM -22.4412 -47.1930 337° Northwest  Level Estimated
06:11AM -22.3771 -47.2217 337° Northwest  Level Estimated
06:12AM -22.3131 -47.2504 337° Northwest  Level Estimated
06:13AM -22.2491 -47.2791 337° Northwest  Level Estimated
06:14AM -22.1850 -47.3078 337° Northwest  Level Estimated
06:15AM -22.1210 -47.3364 337° Northwest  Level Estimated
06:16AM -22.0569 -47.3650 338° Northwest  Level Estimated
06:17AM -21.9929 -47.3936 338° Northwest  Level Estimated
06:18AM -21.9288 -47.4222 338° Northwest  Level Estimated
06:19AM -21.8647 -47.4507 338° Northwest  Level Estimated
06:20AM -21.8007 -47.4792 338° Northwest  Level Estimated
06:21AM -21.7366 -47.5077 338° Northwest  Level Estimated
06:22AM -21.6725 -47.5362 338° Northwest  Level Estimated
06:23AM -21.6084 -47.5646 338° Northwest  Level Estimated
06:24AM -21.5443 -47.5930 338° Northwest  Level Estimated
06:25AM -21.4802 -47.6214 338° Northwest  Level Estimated
06:26AM -21.4161 -47.6498 338° Northwest  Level Estimated
06:27AM -21.3520 -47.6781 338° Northwest  Level Estimated
06:28AM -21.2879 -47.7064 338° Northwest  Level Estimated
06:29AM -21.2238 -47.7347 338° Northwest  Level Estimated
06:30AM -21.1597 -47.7630 338° Northwest  Level Estimated
06:31AM -21.1342 -47.7742 338° Northwest  Level Estimated
06:32AM -21.1342 -47.7742 17° North  Level Estimated
06:33AM -21.1342 -47.7742 17° North  Level Estimated
06:34AM -21.1342 -47.7742 17° North  Level Estimated
06:35AM -21.1342 -47.7742 17° North  Level Estimated
06:36AM -21.1342 -47.7742 17° North  Level Estimated
06:37AM -21.1342 -47.7742 17° North  Level Estimated
06:38AM -21.1342 -47.7742 17° North  Level Estimated
06:39AM -21.1342 -47.7742 17° North  Level Estimated
06:40AM -21.1342 -47.7742 17° North  Level Estimated
06:41AM -21.1342 -47.7742 17° North  Level Estimated
06:42AM -21.1342 -47.7742 17° North  Level Estimated
06:43AM -21.1342 -47.7742 17° North  Level Estimated